sensor_id;sensor_type;location;lat;lon;timestamp;P1;durP1;ratioP1;P2;durP2;ratioP2
54705;SDS011;40603;48.774;8.916;2023-04-24T00:01:10;3.15;;;1.02;;
54705;SDS011;40603;48.774;8.916;2023-04-24T00:03:36;1.73;;;0.80;;
54705;SDS011;40603;48.774;8.916;2023-04-24T00:06:01;0.73;;;0.70;;
54705;SDS011;40603;48.774;8.916;2023-04-24T00:08:27;2.42;;;0.93;;
54705;SDS011;40603;48.774;8.916;2023-04-24T00:10:52;1.90;;;0.80;;
54705;SDS011;40603;48.774;8.916;2023-04-24T00:13:18;2.92;;;0.93;;
54705;SDS011;40603;48.774;8.916;2023-04-24T00:15:43;1.98;;;0.57;;
54705;SDS011;40603;48.774;8.916;2023-04-24T00:18:08;1.63;;;0.80;;
54705;SDS011;40603;48.774;8.916;2023-04-24T00:20:34;2.90;;;0.85;;
54705;SDS011;40603;48.774;8.916;2023-04-24T00:23:00;2.38;;;0.60;;
54705;SDS011;40603;48.774;8.916;2023-04-24T00:25:25;0.90;;;0.50;;
54705;SDS011;40603;48.774;8.916;2023-04-24T00:27:51;0.50;;;0.50;;
54705;SDS011;40603;48.774;8.916;2023-04-24T00:30:16;2.88;;;0.82;;
54705;SDS011;40603;48.774;8.916;2023-04-24T00:32:41;1.83;;;0.57;;
54705;SDS011;40603;48.774;8.916;2023-04-24T00:35:07;0.65;;;0.63;;
54705;SDS011;40603;48.774;8.916;2023-04-24T00:37:32;1.95;;;0.60;;
54705;SDS011;40603;48.774;8.916;2023-04-24T00:39:57;2.65;;;0.77;;
54705;SDS011;40603;48.774;8.916;2023-04-24T00:42:23;0.73;;;0.60;;
54705;SDS011;40603;48.774;8.916;2023-04-24T00:44:49;3.30;;;0.80;;
54705;SDS011;40603;48.774;8.916;2023-04-24T00:47:14;1.40;;;0.60;;
54705;SDS011;40603;48.774;8.916;2023-04-24T00:49:40;1.67;;;0.75;;
54705;SDS011;40603;48.774;8.916;2023-04-24T00:52:05;0.65;;;0.65;;
54705;SDS011;40603;48.774;8.916;2023-04-24T00:54:34;1.58;;;0.70;;
54705;SDS011;40603;48.774;8.916;2023-04-24T00:57:00;5.70;;;0.90;;
54705;SDS011;40603;48.774;8.916;2023-04-24T00:59:26;1.95;;;0.75;;
54705;SDS011;40603;48.774;8.916;2023-04-24T01:01:51;1.55;;;0.60;;
54705;SDS011;40603;48.774;8.916;2023-04-24T01:04:17;3.92;;;0.70;;
54705;SDS011;40603;48.774;8.916;2023-04-24T01:06:43;1.73;;;0.60;;
54705;SDS011;40603;48.774;8.916;2023-04-24T01:09:09;0.68;;;0.68;;
54705;SDS011;40603;48.774;8.916;2023-04-24T01:11:36;2.17;;;0.70;;
54705;SDS011;40603;48.774;8.916;2023-04-24T01:14:02;1.33;;;0.50;;
54705;SDS011;40603;48.774;8.916;2023-04-24T01:16:27;1.38;;;1.10;;
54705;SDS011;40603;48.774;8.916;2023-04-24T01:18:53;3.20;;;0.73;;
54705;SDS011;40603;48.774;8.916;2023-04-24T01:21:18;4.55;;;0.85;;
54705;SDS011;40603;48.774;8.916;2023-04-24T01:23:46;1.73;;;0.60;;
54705;SDS011;40603;48.774;8.916;2023-04-24T01:26:12;2.83;;;0.80;;
54705;SDS011;40603;48.774;8.916;2023-04-24T01:28:38;1.52;;;0.60;;
54705;SDS011;40603;48.774;8.916;2023-04-24T01:31:04;0.80;;;0.70;;
54705;SDS011;40603;48.774;8.916;2023-04-24T01:33:29;1.58;;;0.80;;
54705;SDS011;40603;48.774;8.916;2023-04-24T01:35:55;1.33;;;0.63;;
54705;SDS011;40603;48.774;8.916;2023-04-24T01:38:20;1.85;;;0.80;;
54705;SDS011;40603;48.774;8.916;2023-04-24T01:40:46;2.72;;;0.73;;
54705;SDS011;40603;48.774;8.916;2023-04-24T01:43:12;0.90;;;0.60;;
54705;SDS011;40603;48.774;8.916;2023-04-24T01:45:37;2.35;;;0.90;;
54705;SDS011;40603;48.774;8.916;2023-04-24T01:48:03;1.05;;;0.90;;
54705;SDS011;40603;48.774;8.916;2023-04-24T01:50:28;1.38;;;0.70;;
54705;SDS011;40603;48.774;8.916;2023-04-24T01:52:53;2.60;;;0.88;;
54705;SDS011;40603;48.774;8.916;2023-04-24T01:55:19;2.53;;;0.75;;
54705;SDS011;40603;48.774;8.916;2023-04-24T01:57:44;2.08;;;0.65;;
54705;SDS011;40603;48.774;8.916;2023-04-24T02:00:10;2.38;;;0.60;;
54705;SDS011;40603;48.774;8.916;2023-04-24T02:02:36;2.10;;;0.73;;
54705;SDS011;40603;48.774;8.916;2023-04-24T02:05:02;4.90;;;0.80;;
54705;SDS011;40603;48.774;8.916;2023-04-24T02:07:27;3.95;;;0.82;;
54705;SDS011;40603;48.774;8.916;2023-04-24T02:09:53;2.42;;;0.98;;
54705;SDS011;40603;48.774;8.916;2023-04-24T02:12:18;1.73;;;0.60;;
54705;SDS011;40603;48.774;8.916;2023-04-24T02:14:44;1.25;;;0.70;;
54705;SDS011;40603;48.774;8.916;2023-04-24T02:17:09;0.82;;;0.82;;
54705;SDS011;40603;48.774;8.916;2023-04-24T02:19:38;1.13;;;0.75;;
54705;SDS011;40603;48.774;8.916;2023-04-24T02:22:04;2.63;;;0.70;;
54705;SDS011;40603;48.774;8.916;2023-04-24T02:24:29;1.17;;;0.70;;
54705;SDS011;40603;48.774;8.916;2023-04-24T02:26:54;1.17;;;0.80;;
54705;SDS011;40603;48.774;8.916;2023-04-24T02:29:20;1.85;;;1.10;;
54705;SDS011;40603;48.774;8.916;2023-04-24T02:31:45;1.35;;;0.70;;
54705;SDS011;40603;48.774;8.916;2023-04-24T02:34:11;2.67;;;0.82;;
54705;SDS011;40603;48.774;8.916;2023-04-24T02:36:36;2.85;;;1.00;;
54705;SDS011;40603;48.774;8.916;2023-04-24T02:39:02;1.15;;;0.82;;
54705;SDS011;40603;48.774;8.916;2023-04-24T02:41:28;1.90;;;0.70;;
54705;SDS011;40603;48.774;8.916;2023-04-24T02:43:56;1.40;;;0.70;;
54705;SDS011;40603;48.774;8.916;2023-04-24T02:46:22;1.50;;;0.73;;
54705;SDS011;40603;48.774;8.916;2023-04-24T02:48:47;1.20;;;0.70;;
54705;SDS011;40603;48.774;8.916;2023-04-24T02:51:13;1.08;;;0.85;;
54705;SDS011;40603;48.774;8.916;2023-04-24T02:53:38;3.17;;;0.73;;
54705;SDS011;40603;48.774;8.916;2023-04-24T02:56:03;1.67;;;0.90;;
54705;SDS011;40603;48.774;8.916;2023-04-24T02:58:29;1.08;;;0.80;;
54705;SDS011;40603;48.774;8.916;2023-04-24T03:00:55;1.77;;;0.60;;
54705;SDS011;40603;48.774;8.916;2023-04-24T03:03:21;3.13;;;1.30;;
54705;SDS011;40603;48.774;8.916;2023-04-24T03:05:46;1.67;;;0.68;;
54705;SDS011;40603;48.774;8.916;2023-04-24T03:08:12;1.05;;;0.90;;
54705;SDS011;40603;48.774;8.916;2023-04-24T03:10:37;1.50;;;0.90;;
54705;SDS011;40603;48.774;8.916;2023-04-24T03:13:02;1.73;;;0.90;;
54705;SDS011;40603;48.774;8.916;2023-04-24T03:15:28;3.60;;;0.85;;
54705;SDS011;40603;48.774;8.916;2023-04-24T03:17:54;1.30;;;0.82;;
54705;SDS011;40603;48.774;8.916;2023-04-24T03:20:20;1.27;;;0.80;;
54705;SDS011;40603;48.774;8.916;2023-04-24T03:22:45;1.40;;;0.80;;
54705;SDS011;40603;48.774;8.916;2023-04-24T03:25:10;1.63;;;0.70;;
54705;SDS011;40603;48.774;8.916;2023-04-24T03:27:36;1.95;;;0.80;;
54705;SDS011;40603;48.774;8.916;2023-04-24T03:30:01;2.72;;;0.70;;
54705;SDS011;40603;48.774;8.916;2023-04-24T03:32:27;1.85;;;0.70;;
54705;SDS011;40603;48.774;8.916;2023-04-24T03:34:52;1.25;;;0.80;;
54705;SDS011;40603;48.774;8.916;2023-04-24T03:37:18;1.80;;;0.88;;
54705;SDS011;40603;48.774;8.916;2023-04-24T03:39:43;1.80;;;0.90;;
54705;SDS011;40603;48.774;8.916;2023-04-24T03:42:09;1.63;;;0.85;;
54705;SDS011;40603;48.774;8.916;2023-04-24T03:44:34;1.83;;;0.90;;
54705;SDS011;40603;48.774;8.916;2023-04-24T03:47:00;3.05;;;0.90;;
54705;SDS011;40603;48.774;8.916;2023-04-24T03:49:25;0.60;;;0.60;;
54705;SDS011;40603;48.774;8.916;2023-04-24T03:51:51;0.93;;;0.68;;
54705;SDS011;40603;48.774;8.916;2023-04-24T03:54:17;2.45;;;0.70;;
54705;SDS011;40603;48.774;8.916;2023-04-24T03:56:42;4.13;;;1.10;;
54705;SDS011;40603;48.774;8.916;2023-04-24T03:59:08;0.95;;;0.80;;
54705;SDS011;40603;48.774;8.916;2023-04-24T04:01:33;3.83;;;1.15;;
54705;SDS011;40603;48.774;8.916;2023-04-24T04:04:01;1.65;;;1.02;;
54705;SDS011;40603;48.774;8.916;2023-04-24T04:06:27;3.58;;;1.13;;
54705;SDS011;40603;48.774;8.916;2023-04-24T04:08:53;1.25;;;1.15;;
54705;SDS011;40603;48.774;8.916;2023-04-24T04:11:18;0.90;;;0.60;;
54705;SDS011;40603;48.774;8.916;2023-04-24T04:13:44;1.75;;;0.93;;
54705;SDS011;40603;48.774;8.916;2023-04-24T04:16:10;2.53;;;0.80;;
54705;SDS011;40603;48.774;8.916;2023-04-24T04:18:35;2.63;;;1.15;;
54705;SDS011;40603;48.774;8.916;2023-04-24T04:21:01;2.15;;;1.15;;
54705;SDS011;40603;48.774;8.916;2023-04-24T04:23:26;1.10;;;1.00;;
54705;SDS011;40603;48.774;8.916;2023-04-24T04:25:53;3.30;;;1.10;;
54705;SDS011;40603;48.774;8.916;2023-04-24T04:28:18;1.15;;;1.05;;
54705;SDS011;40603;48.774;8.916;2023-04-24T04:30:44;1.80;;;1.30;;
54705;SDS011;40603;48.774;8.916;2023-04-24T04:33:10;2.35;;;1.10;;
54705;SDS011;40603;48.774;8.916;2023-04-24T04:35:35;2.35;;;1.27;;
54705;SDS011;40603;48.774;8.916;2023-04-24T04:38:01;2.00;;;1.17;;
54705;SDS011;40603;48.774;8.916;2023-04-24T04:40:26;1.60;;;1.05;;
54705;SDS011;40603;48.774;8.916;2023-04-24T04:42:53;1.63;;;1.00;;
54705;SDS011;40603;48.774;8.916;2023-04-24T04:45:18;4.75;;;1.10;;
54705;SDS011;40603;48.774;8.916;2023-04-24T04:47:45;2.67;;;1.38;;
54705;SDS011;40603;48.774;8.916;2023-04-24T04:50:10;1.00;;;0.90;;
54705;SDS011;40603;48.774;8.916;2023-04-24T04:52:36;2.83;;;0.93;;
54705;SDS011;40603;48.774;8.916;2023-04-24T04:55:01;1.83;;;1.00;;
54705;SDS011;40603;48.774;8.916;2023-04-24T04:57:27;1.10;;;0.82;;
54705;SDS011;40603;48.774;8.916;2023-04-24T04:59:52;0.93;;;0.93;;
54705;SDS011;40603;48.774;8.916;2023-04-24T05:02:18;2.05;;;0.95;;
54705;SDS011;40603;48.774;8.916;2023-04-24T05:04:43;4.00;;;1.20;;
54705;SDS011;40603;48.774;8.916;2023-04-24T05:07:08;2.83;;;1.20;;
54705;SDS011;40603;48.774;8.916;2023-04-24T05:09:34;0.90;;;0.90;;
54705;SDS011;40603;48.774;8.916;2023-04-24T05:11:59;3.63;;;1.38;;
54705;SDS011;40603;48.774;8.916;2023-04-24T05:14:25;1.20;;;1.10;;
54705;SDS011;40603;48.774;8.916;2023-04-24T05:16:50;1.40;;;1.30;;
54705;SDS011;40603;48.774;8.916;2023-04-24T05:19:15;2.05;;;1.20;;
54705;SDS011;40603;48.774;8.916;2023-04-24T05:21:41;1.20;;;1.10;;
54705;SDS011;40603;48.774;8.916;2023-04-24T05:24:06;1.25;;;1.15;;
54705;SDS011;40603;48.774;8.916;2023-04-24T05:26:32;2.65;;;1.10;;
54705;SDS011;40603;48.774;8.916;2023-04-24T05:28:57;1.40;;;1.30;;
54705;SDS011;40603;48.774;8.916;2023-04-24T05:31:22;1.60;;;1.20;;
54705;SDS011;40603;48.774;8.916;2023-04-24T05:33:48;4.60;;;1.50;;
54705;SDS011;40603;48.774;8.916;2023-04-24T05:36:13;3.03;;;1.30;;
54705;SDS011;40603;48.774;8.916;2023-04-24T05:38:38;2.53;;;1.42;;
54705;SDS011;40603;48.774;8.916;2023-04-24T05:41:04;2.70;;;1.20;;
54705;SDS011;40603;48.774;8.916;2023-04-24T05:43:29;1.52;;;1.42;;
54705;SDS011;40603;48.774;8.916;2023-04-24T05:45:54;5.10;;;1.48;;
54705;SDS011;40603;48.774;8.916;2023-04-24T05:48:20;1.65;;;1.55;;
54705;SDS011;40603;48.774;8.916;2023-04-24T05:50:47;2.88;;;2.58;;
54705;SDS011;40603;48.774;8.916;2023-04-24T05:53:12;4.32;;;1.60;;
54705;SDS011;40603;48.774;8.916;2023-04-24T05:55:38;2.03;;;1.60;;
54705;SDS011;40603;48.774;8.916;2023-04-24T05:58:03;1.55;;;1.30;;
54705;SDS011;40603;48.774;8.916;2023-04-24T06:00:28;3.15;;;1.50;;
54705;SDS011;40603;48.774;8.916;2023-04-24T06:02:54;2.05;;;1.65;;
54705;SDS011;40603;48.774;8.916;2023-04-24T06:05:20;2.65;;;1.50;;
54705;SDS011;40603;48.774;8.916;2023-04-24T06:07:45;2.22;;;1.83;;
54705;SDS011;40603;48.774;8.916;2023-04-24T06:10:10;1.65;;;1.55;;
54705;SDS011;40603;48.774;8.916;2023-04-24T06:12:36;2.03;;;1.83;;
54705;SDS011;40603;48.774;8.916;2023-04-24T06:15:01;1.55;;;1.35;;
54705;SDS011;40603;48.774;8.916;2023-04-24T06:17:27;2.67;;;1.88;;
54705;SDS011;40603;48.774;8.916;2023-04-24T06:19:52;2.53;;;1.98;;
54705;SDS011;40603;48.774;8.916;2023-04-24T06:22:17;5.40;;;1.40;;
54705;SDS011;40603;48.774;8.916;2023-04-24T06:24:43;2.45;;;1.50;;
54705;SDS011;40603;48.774;8.916;2023-04-24T06:27:08;4.85;;;1.50;;
54705;SDS011;40603;48.774;8.916;2023-04-24T06:29:33;4.30;;;1.38;;
54705;SDS011;40603;48.774;8.916;2023-04-24T06:32:00;2.45;;;1.85;;
54705;SDS011;40603;48.774;8.916;2023-04-24T06:34:25;2.00;;;1.52;;
54705;SDS011;40603;48.774;8.916;2023-04-24T06:36:50;2.30;;;1.48;;
54705;SDS011;40603;48.774;8.916;2023-04-24T06:39:16;3.80;;;1.70;;
54705;SDS011;40603;48.774;8.916;2023-04-24T06:41:41;3.25;;;1.58;;
54705;SDS011;40603;48.774;8.916;2023-04-24T06:44:06;4.05;;;1.52;;
54705;SDS011;40603;48.774;8.916;2023-04-24T06:46:32;2.00;;;1.73;;
54705;SDS011;40603;48.774;8.916;2023-04-24T06:48:57;1.30;;;1.20;;
54705;SDS011;40603;48.774;8.916;2023-04-24T06:51:23;2.03;;;1.40;;
54705;SDS011;40603;48.774;8.916;2023-04-24T06:53:48;4.15;;;1.48;;
54705;SDS011;40603;48.774;8.916;2023-04-24T06:56:14;2.60;;;1.38;;
54705;SDS011;40603;48.774;8.916;2023-04-24T06:58:40;2.30;;;1.38;;
54705;SDS011;40603;48.774;8.916;2023-04-24T07:01:05;2.58;;;1.33;;
54705;SDS011;40603;48.774;8.916;2023-04-24T07:03:31;2.83;;;1.10;;
54705;SDS011;40603;48.774;8.916;2023-04-24T07:05:56;2.10;;;1.52;;
54705;SDS011;40603;48.774;8.916;2023-04-24T07:08:22;3.08;;;1.40;;
54705;SDS011;40603;48.774;8.916;2023-04-24T07:10:48;2.47;;;1.20;;
54705;SDS011;40603;48.774;8.916;2023-04-24T07:13:14;1.15;;;1.02;;
54705;SDS011;40603;48.774;8.916;2023-04-24T07:15:39;2.25;;;1.33;;
54705;SDS011;40603;48.774;8.916;2023-04-24T07:18:05;1.55;;;1.10;;
54705;SDS011;40603;48.774;8.916;2023-04-24T07:20:31;2.67;;;1.17;;
54705;SDS011;40603;48.774;8.916;2023-04-24T07:22:56;3.35;;;1.30;;
54705;SDS011;40603;48.774;8.916;2023-04-24T07:25:21;5.55;;;1.20;;
54705;SDS011;40603;48.774;8.916;2023-04-24T07:27:47;2.20;;;1.13;;
54705;SDS011;40603;48.774;8.916;2023-04-24T07:30:13;1.98;;;1.13;;
54705;SDS011;40603;48.774;8.916;2023-04-24T07:32:39;2.03;;;1.17;;
54705;SDS011;40603;48.774;8.916;2023-04-24T07:35:04;1.42;;;1.20;;
54705;SDS011;40603;48.774;8.916;2023-04-24T07:37:30;1.52;;;1.15;;
54705;SDS011;40603;48.774;8.916;2023-04-24T07:39:55;1.77;;;1.40;;
54705;SDS011;40603;48.774;8.916;2023-04-24T07:42:21;1.17;;;0.90;;
54705;SDS011;40603;48.774;8.916;2023-04-24T07:44:46;1.13;;;1.05;;
54705;SDS011;40603;48.774;8.916;2023-04-24T07:47:12;3.28;;;1.23;;
54705;SDS011;40603;48.774;8.916;2023-04-24T07:49:39;1.50;;;1.23;;
54705;SDS011;40603;48.774;8.916;2023-04-24T07:52:06;3.08;;;1.08;;
54705;SDS011;40603;48.774;8.916;2023-04-24T07:54:31;2.08;;;1.00;;
54705;SDS011;40603;48.774;8.916;2023-04-24T07:56:56;2.38;;;1.50;;
54705;SDS011;40603;48.774;8.916;2023-04-24T07:59:22;4.65;;;1.10;;
54705;SDS011;40603;48.774;8.916;2023-04-24T08:01:47;2.42;;;1.23;;
54705;SDS011;40603;48.774;8.916;2023-04-24T08:04:12;2.25;;;1.23;;
54705;SDS011;40603;48.774;8.916;2023-04-24T08:06:37;4.47;;;1.23;;
54705;SDS011;40603;48.774;8.916;2023-04-24T08:09:03;5.03;;;1.58;;
54705;SDS011;40603;48.774;8.916;2023-04-24T08:11:28;1.73;;;1.10;;
54705;SDS011;40603;48.774;8.916;2023-04-24T08:13:53;2.92;;;1.35;;
54705;SDS011;40603;48.774;8.916;2023-04-24T08:16:19;4.25;;;1.30;;
54705;SDS011;40603;48.774;8.916;2023-04-24T08:18:45;1.42;;;1.25;;
54705;SDS011;40603;48.774;8.916;2023-04-24T08:21:10;2.70;;;1.92;;
54705;SDS011;40603;48.774;8.916;2023-04-24T08:23:37;1.42;;;1.15;;
54705;SDS011;40603;48.774;8.916;2023-04-24T08:26:03;1.42;;;1.20;;
54705;SDS011;40603;48.774;8.916;2023-04-24T08:28:28;1.60;;;1.20;;
54705;SDS011;40603;48.774;8.916;2023-04-24T08:30:53;2.13;;;1.27;;
54705;SDS011;40603;48.774;8.916;2023-04-24T08:33:23;2.95;;;1.40;;
54705;SDS011;40603;48.774;8.916;2023-04-24T08:35:48;1.77;;;1.45;;
54705;SDS011;40603;48.774;8.916;2023-04-24T08:38:13;1.60;;;1.27;;
54705;SDS011;40603;48.774;8.916;2023-04-24T08:40:39;4.10;;;1.60;;
54705;SDS011;40603;48.774;8.916;2023-04-24T08:43:04;3.40;;;1.40;;
54705;SDS011;40603;48.774;8.916;2023-04-24T08:45:30;2.70;;;1.38;;
54705;SDS011;40603;48.774;8.916;2023-04-24T08:47:55;2.55;;;1.20;;
54705;SDS011;40603;48.774;8.916;2023-04-24T08:50:22;1.73;;;1.10;;
54705;SDS011;40603;48.774;8.916;2023-04-24T08:52:49;1.33;;;1.10;;
54705;SDS011;40603;48.774;8.916;2023-04-24T08:55:15;1.52;;;1.23;;
54705;SDS011;40603;48.774;8.916;2023-04-24T08:57:43;1.50;;;1.40;;
54705;SDS011;40603;48.774;8.916;2023-04-24T09:00:10;1.98;;;1.23;;
54705;SDS011;40603;48.774;8.916;2023-04-24T09:02:35;2.13;;;1.50;;
54705;SDS011;40603;48.774;8.916;2023-04-24T09:05:01;3.42;;;1.45;;
54705;SDS011;40603;48.774;8.916;2023-04-24T09:07:28;1.48;;;1.23;;
54705;SDS011;40603;48.774;8.916;2023-04-24T09:09:55;4.10;;;1.58;;
54705;SDS011;40603;48.774;8.916;2023-04-24T09:12:21;2.00;;;1.20;;
54705;SDS011;40603;48.774;8.916;2023-04-24T09:14:47;1.75;;;1.27;;
54705;SDS011;40603;48.774;8.916;2023-04-24T09:17:13;1.20;;;1.10;;
54705;SDS011;40603;48.774;8.916;2023-04-24T09:19:38;1.63;;;1.30;;
54705;SDS011;40603;48.774;8.916;2023-04-24T09:22:07;1.55;;;1.08;;
54705;SDS011;40603;48.774;8.916;2023-04-24T09:24:33;2.58;;;1.70;;
54705;SDS011;40603;48.774;8.916;2023-04-24T09:26:58;2.53;;;1.35;;
54705;SDS011;40603;48.774;8.916;2023-04-24T09:29:26;1.75;;;1.48;;
54705;SDS011;40603;48.774;8.916;2023-04-24T09:31:51;2.70;;;1.52;;
54705;SDS011;40603;48.774;8.916;2023-04-24T09:34:21;3.08;;;1.35;;
54705;SDS011;40603;48.774;8.916;2023-04-24T09:36:47;1.38;;;1.08;;
54705;SDS011;40603;48.774;8.916;2023-04-24T09:39:14;2.03;;;1.40;;
54705;SDS011;40603;48.774;8.916;2023-04-24T09:41:47;2.33;;;1.27;;
54705;SDS011;40603;48.774;8.916;2023-04-24T09:44:20;2.58;;;1.17;;
54705;SDS011;40603;48.774;8.916;2023-04-24T09:46:51;1.60;;;1.20;;
54705;SDS011;40603;48.774;8.916;2023-04-24T09:49:16;1.83;;;0.98;;
54705;SDS011;40603;48.774;8.916;2023-04-24T09:51:46;1.25;;;1.15;;
54705;SDS011;40603;48.774;8.916;2023-04-24T09:54:15;1.77;;;0.90;;
54705;SDS011;40603;48.774;8.916;2023-04-24T09:56:48;4.93;;;1.20;;
54705;SDS011;40603;48.774;8.916;2023-04-24T09:59:17;1.20;;;0.98;;
54705;SDS011;40603;48.774;8.916;2023-04-24T10:01:44;2.25;;;1.20;;
54705;SDS011;40603;48.774;8.916;2023-04-24T10:04:16;2.67;;;0.95;;
54705;SDS011;40603;48.774;8.916;2023-04-24T10:06:45;1.65;;;1.00;;
54705;SDS011;40603;48.774;8.916;2023-04-24T10:09:12;3.03;;;0.80;;
54705;SDS011;40603;48.774;8.916;2023-04-24T10:11:40;1.58;;;1.10;;
54705;SDS011;40603;48.774;8.916;2023-04-24T10:14:06;2.40;;;1.08;;
54705;SDS011;40603;48.774;8.916;2023-04-24T10:16:32;1.08;;;0.98;;
54705;SDS011;40603;48.774;8.916;2023-04-24T10:18:58;1.05;;;1.02;;
54705;SDS011;40603;48.774;8.916;2023-04-24T10:21:24;1.52;;;1.00;;
54705;SDS011;40603;48.774;8.916;2023-04-24T10:23:51;1.50;;;1.20;;
54705;SDS011;40603;48.774;8.916;2023-04-24T10:26:17;2.38;;;1.08;;
54705;SDS011;40603;48.774;8.916;2023-04-24T10:28:44;1.85;;;1.15;;
54705;SDS011;40603;48.774;8.916;2023-04-24T10:31:10;0.90;;;0.90;;
54705;SDS011;40603;48.774;8.916;2023-04-24T10:33:36;2.10;;;1.05;;
54705;SDS011;40603;48.774;8.916;2023-04-24T10:36:01;1.45;;;0.95;;
54705;SDS011;40603;48.774;8.916;2023-04-24T10:38:27;2.45;;;1.10;;
54705;SDS011;40603;48.774;8.916;2023-04-24T10:40:57;4.22;;;1.00;;
54705;SDS011;40603;48.774;8.916;2023-04-24T10:43:33;1.15;;;0.82;;
54705;SDS011;40603;48.774;8.916;2023-04-24T10:46:02;0.98;;;0.98;;
54705;SDS011;40603;48.774;8.916;2023-04-24T10:48:29;2.67;;;1.00;;
54705;SDS011;40603;48.774;8.916;2023-04-24T10:50:55;0.95;;;0.88;;
54705;SDS011;40603;48.774;8.916;2023-04-24T10:53:21;1.02;;;0.90;;
54705;SDS011;40603;48.774;8.916;2023-04-24T10:55:52;1.00;;;1.00;;
54705;SDS011;40603;48.774;8.916;2023-04-24T10:58:23;3.42;;;1.10;;
54705;SDS011;40603;48.774;8.916;2023-04-24T11:00:56;1.10;;;0.80;;
54705;SDS011;40603;48.774;8.916;2023-04-24T11:03:28;1.20;;;1.10;;
54705;SDS011;40603;48.774;8.916;2023-04-24T11:05:55;4.82;;;1.13;;
54705;SDS011;40603;48.774;8.916;2023-04-24T11:08:23;2.47;;;1.15;;
54705;SDS011;40603;48.774;8.916;2023-04-24T11:16:20;2.53;;;1.75;;
54705;SDS011;40603;48.774;8.916;2023-04-24T11:19:02;2.05;;;0.98;;
54705;SDS011;40603;48.774;8.916;2023-04-24T11:24:21;1.48;;;1.10;;
54705;SDS011;40603;48.774;8.916;2023-04-24T11:26:51;1.15;;;1.00;;
54705;SDS011;40603;48.774;8.916;2023-04-24T11:29:17;0.90;;;0.90;;
54705;SDS011;40603;48.774;8.916;2023-04-24T11:31:45;1.63;;;1.20;;
54705;SDS011;40603;48.774;8.916;2023-04-24T11:34:16;1.23;;;1.00;;
54705;SDS011;40603;48.774;8.916;2023-04-24T11:36:45;1.30;;;1.20;;
54705;SDS011;40603;48.774;8.916;2023-04-24T11:39:11;1.17;;;0.90;;
54705;SDS011;40603;48.774;8.916;2023-04-24T11:41:37;2.38;;;1.33;;
54705;SDS011;40603;48.774;8.916;2023-04-24T11:44:03;1.92;;;1.40;;
54705;SDS011;40603;48.774;8.916;2023-04-24T11:46:31;3.42;;;1.83;;
54705;SDS011;40603;48.774;8.916;2023-04-24T11:48:57;2.03;;;1.40;;
54705;SDS011;40603;48.774;8.916;2023-04-24T11:51:23;2.10;;;1.20;;
54705;SDS011;40603;48.774;8.916;2023-04-24T11:53:50;1.73;;;1.45;;
54705;SDS011;40603;48.774;8.916;2023-04-24T11:56:18;3.60;;;1.10;;
54705;SDS011;40603;48.774;8.916;2023-04-24T11:58:44;2.67;;;1.10;;
54705;SDS011;40603;48.774;8.916;2023-04-24T12:01:10;1.63;;;1.00;;
54705;SDS011;40603;48.774;8.916;2023-04-24T12:03:35;2.63;;;1.40;;
54705;SDS011;40603;48.774;8.916;2023-04-24T12:08:35;2.28;;;1.20;;
54705;SDS011;40603;48.774;8.916;2023-04-24T12:11:02;1.90;;;1.30;;
54705;SDS011;40603;48.774;8.916;2023-04-24T12:13:28;2.75;;;1.08;;
54705;SDS011;40603;48.774;8.916;2023-04-24T12:15:53;1.10;;;1.00;;
54705;SDS011;40603;48.774;8.916;2023-04-24T12:18:21;2.25;;;1.27;;
54705;SDS011;40603;48.774;8.916;2023-04-24T12:20:47;1.20;;;1.10;;
54705;SDS011;40603;48.774;8.916;2023-04-24T12:23:13;2.08;;;1.10;;
54705;SDS011;40603;48.774;8.916;2023-04-24T12:25:38;2.15;;;1.33;;
54705;SDS011;40603;48.774;8.916;2023-04-24T12:30:29;2.05;;;1.35;;
54705;SDS011;40603;48.774;8.916;2023-04-24T12:32:57;2.67;;;1.65;;
54705;SDS011;40603;48.774;8.916;2023-04-24T12:35:23;2.63;;;1.20;;
54705;SDS011;40603;48.774;8.916;2023-04-24T12:37:54;1.85;;;1.17;;
54705;SDS011;40603;48.774;8.916;2023-04-24T12:40:20;2.58;;;1.42;;
54705;SDS011;40603;48.774;8.916;2023-04-24T12:42:50;1.00;;;1.00;;
54705;SDS011;40603;48.774;8.916;2023-04-24T12:45:16;1.33;;;1.20;;
54705;SDS011;40603;48.774;8.916;2023-04-24T12:47:43;2.88;;;1.20;;
54705;SDS011;40603;48.774;8.916;2023-04-24T12:50:10;1.98;;;1.30;;
54705;SDS011;40603;48.774;8.916;2023-04-24T12:52:36;1.92;;;1.30;;
54705;SDS011;40603;48.774;8.916;2023-04-24T12:55:02;2.90;;;1.67;;
54705;SDS011;40603;48.774;8.916;2023-04-24T12:57:29;1.50;;;1.40;;
54705;SDS011;40603;48.774;8.916;2023-04-24T12:59:55;2.30;;;1.60;;
54705;SDS011;40603;48.774;8.916;2023-04-24T13:02:22;2.22;;;1.30;;
54705;SDS011;40603;48.774;8.916;2023-04-24T13:04:48;1.65;;;1.55;;
54705;SDS011;40603;48.774;8.916;2023-04-24T13:07:13;2.03;;;1.52;;
54705;SDS011;40603;48.774;8.916;2023-04-24T13:09:39;3.00;;;1.70;;
54705;SDS011;40603;48.774;8.916;2023-04-24T13:12:05;2.60;;;1.75;;
54705;SDS011;40603;48.774;8.916;2023-04-24T13:14:34;4.72;;;1.25;;
54705;SDS011;40603;48.774;8.916;2023-04-24T13:16:59;2.78;;;1.33;;
54705;SDS011;40603;48.774;8.916;2023-04-24T13:19:25;2.25;;;1.40;;
54705;SDS011;40603;48.774;8.916;2023-04-24T13:21:51;2.75;;;1.38;;
54705;SDS011;40603;48.774;8.916;2023-04-24T13:24:17;1.92;;;1.50;;
54705;SDS011;40603;48.774;8.916;2023-04-24T13:26:43;2.10;;;1.40;;
54705;SDS011;40603;48.774;8.916;2023-04-24T13:29:08;2.58;;;1.13;;
54705;SDS011;40603;48.774;8.916;2023-04-24T13:31:34;1.30;;;1.20;;
54705;SDS011;40603;48.774;8.916;2023-04-24T13:33:59;1.02;;;1.00;;
54705;SDS011;40603;48.774;8.916;2023-04-24T13:36:24;2.40;;;1.00;;
54705;SDS011;40603;48.774;8.916;2023-04-24T13:38:50;1.45;;;1.00;;
54705;SDS011;40603;48.774;8.916;2023-04-24T13:41:15;1.27;;;0.90;;
54705;SDS011;40603;48.774;8.916;2023-04-24T13:43:43;1.13;;;1.02;;
54705;SDS011;40603;48.774;8.916;2023-04-24T13:46:08;1.63;;;1.13;;
54705;SDS011;40603;48.774;8.916;2023-04-24T13:48:34;1.38;;;1.20;;
54705;SDS011;40603;48.774;8.916;2023-04-24T13:50:59;1.60;;;1.40;;
54705;SDS011;40603;48.774;8.916;2023-04-24T13:53:25;3.15;;;1.40;;
54705;SDS011;40603;48.774;8.916;2023-04-24T13:55:50;3.33;;;1.30;;
54705;SDS011;40603;48.774;8.916;2023-04-24T13:58:15;1.48;;;1.23;;
54705;SDS011;40603;48.774;8.916;2023-04-24T14:00:41;1.45;;;1.13;;
54705;SDS011;40603;48.774;8.916;2023-04-24T14:03:06;1.45;;;1.23;;
54705;SDS011;40603;48.774;8.916;2023-04-24T14:05:31;2.13;;;1.30;;
54705;SDS011;40603;48.774;8.916;2023-04-24T14:07:56;1.73;;;1.30;;
54705;SDS011;40603;48.774;8.916;2023-04-24T14:10:22;2.17;;;1.30;;
54705;SDS011;40603;48.774;8.916;2023-04-24T14:12:47;1.40;;;1.30;;
54705;SDS011;40603;48.774;8.916;2023-04-24T14:15:13;1.27;;;1.17;;
54705;SDS011;40603;48.774;8.916;2023-04-24T14:17:38;1.30;;;1.20;;
54705;SDS011;40603;48.774;8.916;2023-04-24T14:20:04;3.28;;;1.13;;
54705;SDS011;40603;48.774;8.916;2023-04-24T14:22:29;2.67;;;1.35;;
54705;SDS011;40603;48.774;8.916;2023-04-24T14:24:55;3.17;;;1.25;;
54705;SDS011;40603;48.774;8.916;2023-04-24T14:27:20;1.42;;;1.17;;
54705;SDS011;40603;48.774;8.916;2023-04-24T14:29:46;2.20;;;1.30;;
54705;SDS011;40603;48.774;8.916;2023-04-24T14:32:11;1.40;;;1.10;;
54705;SDS011;40603;48.774;8.916;2023-04-24T14:34:36;2.13;;;1.33;;
54705;SDS011;40603;48.774;8.916;2023-04-24T14:37:02;2.22;;;1.30;;
54705;SDS011;40603;48.774;8.916;2023-04-24T14:39:27;1.58;;;1.10;;
54705;SDS011;40603;48.774;8.916;2023-04-24T14:41:53;2.08;;;1.40;;
54705;SDS011;40603;48.774;8.916;2023-04-24T14:44:18;1.23;;;1.13;;
54705;SDS011;40603;48.774;8.916;2023-04-24T14:46:43;4.43;;;1.50;;
54705;SDS011;40603;48.774;8.916;2023-04-24T14:49:09;1.85;;;1.20;;
54705;SDS011;40603;48.774;8.916;2023-04-24T14:51:35;1.73;;;1.10;;
54705;SDS011;40603;48.774;8.916;2023-04-24T14:54:00;2.30;;;1.40;;